sensor_id;sensor_type;location;lat;lon;timestamp;P1;durP1;ratioP1;P2;durP2;ratioP2
4278;SDS011;2153;47.744;10.580;2023-12-28T00:00:48;11.60;;;1.40;;
4278;SDS011;2153;47.744;10.580;2023-12-28T00:03:15;11.13;;;1.23;;
4278;SDS011;2153;47.744;10.580;2023-12-28T00:05:43;10.00;;;1.40;;
4278;SDS011;2153;47.744;10.580;2023-12-28T00:08:10;11.90;;;1.80;;
4278;SDS011;2153;47.744;10.580;2023-12-28T00:10:36;10.87;;;1.70;;
4278;SDS011;2153;47.744;10.580;2023-12-28T00:13:03;10.53;;;1.40;;
4278;SDS011;2153;47.744;10.580;2023-12-28T00:15:30;10.40;;;1.60;;
4278;SDS011;2153;47.744;10.580;2023-12-28T00:17:56;11.93;;;1.80;;
4278;SDS011;2153;47.744;10.580;2023-12-28T00:20:23;10.20;;;1.33;;
4278;SDS011;2153;47.744;10.580;2023-12-28T00:22:51;10.53;;;1.50;;
4278;SDS011;2153;47.744;10.580;2023-12-28T00:25:18;10.90;;;1.40;;
4278;SDS011;2153;47.744;10.580;2023-12-28T00:27:44;9.97;;;1.30;;
4278;SDS011;2153;47.744;10.580;2023-12-28T00:30:12;9.40;;;1.03;;
4278;SDS011;2153;47.744;10.580;2023-12-28T00:32:39;10.50;;;1.43;;
4278;SDS011;2153;47.744;10.580;2023-12-28T00:35:08;10.27;;;1.13;;
4278;SDS011;2153;47.744;10.580;2023-12-28T00:37:35;10.00;;;1.43;;
4278;SDS011;2153;47.744;10.580;2023-12-28T00:40:03;9.93;;;1.10;;
4278;SDS011;2153;47.744;10.580;2023-12-28T00:42:31;9.90;;;1.40;;
4278;SDS011;2153;47.744;10.580;2023-12-28T00:44:57;10.57;;;1.67;;
4278;SDS011;2153;47.744;10.580;2023-12-28T00:47:24;10.97;;;1.80;;
4278;SDS011;2153;47.744;10.580;2023-12-28T00:49:51;9.83;;;1.33;;
4278;SDS011;2153;47.744;10.580;2023-12-28T00:52:18;10.20;;;1.33;;
4278;SDS011;2153;47.744;10.580;2023-12-28T00:54:44;10.00;;;1.40;;
4278;SDS011;2153;47.744;10.580;2023-12-28T00:57:12;10.27;;;1.30;;
4278;SDS011;2153;47.744;10.580;2023-12-28T00:59:39;10.33;;;1.27;;
4278;SDS011;2153;47.744;10.580;2023-12-28T01:02:06;9.37;;;1.00;;
4278;SDS011;2153;47.744;10.580;2023-12-28T01:04:32;9.60;;;1.10;;
4278;SDS011;2153;47.744;10.580;2023-12-28T01:06:59;9.40;;;1.23;;
4278;SDS011;2153;47.744;10.580;2023-12-28T01:09:27;9.73;;;1.30;;
4278;SDS011;2153;47.744;10.580;2023-12-28T01:11:53;11.10;;;1.30;;
4278;SDS011;2153;47.744;10.580;2023-12-28T01:14:21;11.67;;;1.53;;
4278;SDS011;2153;47.744;10.580;2023-12-28T01:16:48;11.50;;;1.57;;
4278;SDS011;2153;47.744;10.580;2023-12-28T01:19:15;10.07;;;1.30;;
4278;SDS011;2153;47.744;10.580;2023-12-28T01:21:42;13.13;;;1.43;;
4278;SDS011;2153;47.744;10.580;2023-12-28T01:24:08;10.60;;;1.60;;
4278;SDS011;2153;47.744;10.580;2023-12-28T01:26:35;10.07;;;1.33;;
4278;SDS011;2153;47.744;10.580;2023-12-28T01:29:02;12.17;;;1.57;;
4278;SDS011;2153;47.744;10.580;2023-12-28T01:31:30;9.70;;;1.23;;
4278;SDS011;2153;47.744;10.580;2023-12-28T01:33:57;9.80;;;1.30;;
4278;SDS011;2153;47.744;10.580;2023-12-28T01:36:23;9.90;;;1.23;;
4278;SDS011;2153;47.744;10.580;2023-12-28T01:38:51;9.50;;;1.03;;
4278;SDS011;2153;47.744;10.580;2023-12-28T01:41:17;9.87;;;1.20;;
4278;SDS011;2153;47.744;10.580;2023-12-28T01:43:44;10.30;;;1.47;;
4278;SDS011;2153;47.744;10.580;2023-12-28T01:46:12;11.20;;;1.37;;
4278;SDS011;2153;47.744;10.580;2023-12-28T01:48:43;11.00;;;1.80;;
4278;SDS011;2153;47.744;10.580;2023-12-28T01:51:12;10.10;;;1.43;;
4278;SDS011;2153;47.744;10.580;2023-12-28T01:53:40;10.13;;;1.50;;
4278;SDS011;2153;47.744;10.580;2023-12-28T01:56:07;9.53;;;1.27;;
4278;SDS011;2153;47.744;10.580;2023-12-28T01:58:34;9.53;;;1.13;;
4278;SDS011;2153;47.744;10.580;2023-12-28T02:01:02;11.40;;;1.67;;
4278;SDS011;2153;47.744;10.580;2023-12-28T02:03:29;9.93;;;1.10;;
4278;SDS011;2153;47.744;10.580;2023-12-28T02:05:58;12.93;;;1.63;;
4278;SDS011;2153;47.744;10.580;2023-12-28T02:08:26;9.83;;;1.07;;
4278;SDS011;2153;47.744;10.580;2023-12-28T02:10:53;9.90;;;1.33;;
4278;SDS011;2153;47.744;10.580;2023-12-28T02:13:21;10.13;;;1.20;;
4278;SDS011;2153;47.744;10.580;2023-12-28T02:15:49;9.80;;;1.30;;
4278;SDS011;2153;47.744;10.580;2023-12-28T02:18:21;10.47;;;1.60;;
4278;SDS011;2153;47.744;10.580;2023-12-28T02:20:52;10.43;;;1.50;;
4278;SDS011;2153;47.744;10.580;2023-12-28T02:23:21;9.80;;;1.33;;
4278;SDS011;2153;47.744;10.580;2023-12-28T02:25:49;9.23;;;1.10;;
4278;SDS011;2153;47.744;10.580;2023-12-28T02:28:16;9.23;;;1.10;;
4278;SDS011;2153;47.744;10.580;2023-12-28T02:30:42;9.20;;;1.00;;
4278;SDS011;2153;47.744;10.580;2023-12-28T02:33:11;9.20;;;0.97;;
4278;SDS011;2153;47.744;10.580;2023-12-28T02:35:45;8.90;;;0.90;;
4278;SDS011;2153;47.744;10.580;2023-12-28T02:38:17;12.47;;;0.90;;
4278;SDS011;2153;47.744;10.580;2023-12-28T02:40:46;10.17;;;1.00;;
4278;SDS011;2153;47.744;10.580;2023-12-28T02:43:16;8.80;;;0.80;;
4278;SDS011;2153;47.744;10.580;2023-12-28T02:45:43;9.60;;;1.00;;
4278;SDS011;2153;47.744;10.580;2023-12-28T02:48:10;9.50;;;0.90;;
4278;SDS011;2153;47.744;10.580;2023-12-28T02:50:36;9.47;;;1.10;;
4278;SDS011;2153;47.744;10.580;2023-12-28T02:53:03;9.23;;;0.93;;
4278;SDS011;2153;47.744;10.580;2023-12-28T02:55:30;8.73;;;0.80;;
4278;SDS011;2153;47.744;10.580;2023-12-28T02:57:57;9.60;;;1.17;;
4278;SDS011;2153;47.744;10.580;2023-12-28T03:00:26;9.47;;;1.00;;
4278;SDS011;2153;47.744;10.580;2023-12-28T03:02:53;9.07;;;0.90;;
4278;SDS011;2153;47.744;10.580;2023-12-28T03:05:20;9.60;;;1.00;;
4278;SDS011;2153;47.744;10.580;2023-12-28T03:07:46;9.67;;;1.07;;
4278;SDS011;2153;47.744;10.580;2023-12-28T03:10:13;9.80;;;1.03;;
4278;SDS011;2153;47.744;10.580;2023-12-28T03:12:40;9.30;;;1.00;;
4278;SDS011;2153;47.744;10.580;2023-12-28T03:15:06;9.00;;;0.90;;
4278;SDS011;2153;47.744;10.580;2023-12-28T03:17:35;10.23;;;1.40;;
4278;SDS011;2153;47.744;10.580;2023-12-28T03:20:02;9.30;;;1.07;;
4278;SDS011;2153;47.744;10.580;2023-12-28T03:22:29;9.20;;;1.00;;
4278;SDS011;2153;47.744;10.580;2023-12-28T03:24:55;9.80;;;1.50;;
4278;SDS011;2153;47.744;10.580;2023-12-28T03:27:22;9.23;;;0.97;;
4278;SDS011;2153;47.744;10.580;2023-12-28T03:29:49;9.30;;;1.00;;
4278;SDS011;2153;47.744;10.580;2023-12-28T03:32:15;9.60;;;0.90;;
4278;SDS011;2153;47.744;10.580;2023-12-28T03:34:43;10.40;;;1.10;;
4278;SDS011;2153;47.744;10.580;2023-12-28T03:37:10;9.80;;;1.10;;
4278;SDS011;2153;47.744;10.580;2023-12-28T03:39:37;10.80;;;1.07;;
4278;SDS011;2153;47.744;10.580;2023-12-28T03:42:04;10.10;;;0.90;;
4278;SDS011;2153;47.744;10.580;2023-12-28T03:44:30;11.57;;;0.80;;
4278;SDS011;2153;47.744;10.580;2023-12-28T03:46:57;9.73;;;0.80;;
4278;SDS011;2153;47.744;10.580;2023-12-28T03:49:25;10.30;;;1.00;;
4278;SDS011;2153;47.744;10.580;2023-12-28T03:51:53;9.93;;;1.00;;
4278;SDS011;2153;47.744;10.580;2023-12-28T03:54:19;9.63;;;1.00;;
4278;SDS011;2153;47.744;10.580;2023-12-28T03:56:46;9.80;;;0.90;;
4278;SDS011;2153;47.744;10.580;2023-12-28T03:59:13;10.20;;;1.00;;
4278;SDS011;2153;47.744;10.580;2023-12-28T04:01:41;11.53;;;1.00;;
4278;SDS011;2153;47.744;10.580;2023-12-28T04:04:08;10.40;;;1.07;;
4278;SDS011;2153;47.744;10.580;2023-12-28T04:06:35;10.37;;;1.20;;
4278;SDS011;2153;47.744;10.580;2023-12-28T04:09:03;11.50;;;1.20;;
4278;SDS011;2153;47.744;10.580;2023-12-28T04:11:29;10.40;;;1.00;;
4278;SDS011;2153;47.744;10.580;2023-12-28T04:13:56;10.50;;;1.23;;
4278;SDS011;2153;47.744;10.580;2023-12-28T04:16:23;9.93;;;0.87;;
4278;SDS011;2153;47.744;10.580;2023-12-28T04:18:49;10.30;;;0.83;;
4278;SDS011;2153;47.744;10.580;2023-12-28T04:21:16;10.83;;;1.10;;
4278;SDS011;2153;47.744;10.580;2023-12-28T04:23:44;10.47;;;1.00;;
4278;SDS011;2153;47.744;10.580;2023-12-28T04:26:12;10.33;;;1.10;;
4278;SDS011;2153;47.744;10.580;2023-12-28T04:28:38;10.00;;;0.90;;
4278;SDS011;2153;47.744;10.580;2023-12-28T04:31:06;10.10;;;1.00;;
4278;SDS011;2153;47.744;10.580;2023-12-28T04:33:33;9.77;;;0.90;;
4278;SDS011;2153;47.744;10.580;2023-12-28T04:36:00;10.30;;;0.90;;
4278;SDS011;2153;47.744;10.580;2023-12-28T04:38:28;10.00;;;1.00;;
4278;SDS011;2153;47.744;10.580;2023-12-28T04:40:55;10.83;;;1.20;;
4278;SDS011;2153;47.744;10.580;2023-12-28T04:43:23;12.20;;;1.07;;
4278;SDS011;2153;47.744;10.580;2023-12-28T04:45:50;10.53;;;1.20;;
4278;SDS011;2153;47.744;10.580;2023-12-28T04:48:17;10.00;;;1.00;;
4278;SDS011;2153;47.744;10.580;2023-12-28T04:50:45;10.43;;;1.20;;
4278;SDS011;2153;47.744;10.580;2023-12-28T04:53:12;10.27;;;1.20;;
4278;SDS011;2153;47.744;10.580;2023-12-28T04:55:39;10.80;;;1.30;;
4278;SDS011;2153;47.744;10.580;2023-12-28T04:58:06;10.70;;;1.40;;
4278;SDS011;2153;47.744;10.580;2023-12-28T05:00:34;11.43;;;1.33;;
4278;SDS011;2153;47.744;10.580;2023-12-28T05:03:00;10.97;;;1.60;;
4278;SDS011;2153;47.744;10.580;2023-12-28T05:05:27;10.17;;;1.20;;
4278;SDS011;2153;47.744;10.580;2023-12-28T05:07:54;10.90;;;1.40;;
4278;SDS011;2153;47.744;10.580;2023-12-28T05:10:20;10.93;;;1.37;;
4278;SDS011;2153;47.744;10.580;2023-12-28T05:12:47;11.30;;;1.50;;
4278;SDS011;2153;47.744;10.580;2023-12-28T05:15:14;10.80;;;1.50;;
4278;SDS011;2153;47.744;10.580;2023-12-28T05:17:43;11.93;;;1.70;;
4278;SDS011;2153;47.744;10.580;2023-12-28T05:20:10;11.93;;;1.80;;
4278;SDS011;2153;47.744;10.580;2023-12-28T05:22:37;10.73;;;1.17;;
4278;SDS011;2153;47.744;10.580;2023-12-28T05:25:04;11.37;;;1.50;;
4278;SDS011;2153;47.744;10.580;2023-12-28T05:27:31;10.87;;;1.40;;
4278;SDS011;2153;47.744;10.580;2023-12-28T05:29:57;11.27;;;1.17;;
4278;SDS011;2153;47.744;10.580;2023-12-28T05:32:24;11.20;;;1.80;;
4278;SDS011;2153;47.744;10.580;2023-12-28T05:34:52;24.20;;;2.30;;
4278;SDS011;2153;47.744;10.580;2023-12-28T05:37:18;14.67;;;4.07;;
4278;SDS011;2153;47.744;10.580;2023-12-28T05:39:45;16.40;;;4.30;;
4278;SDS011;2153;47.744;10.580;2023-12-28T05:42:13;13.33;;;3.10;;
4278;SDS011;2153;47.744;10.580;2023-12-28T05:44:40;18.33;;;2.00;;
4278;SDS011;2153;47.744;10.580;2023-12-28T05:47:06;10.43;;;1.23;;
4278;SDS011;2153;47.744;10.580;2023-12-28T05:49:33;10.77;;;1.43;;
4278;SDS011;2153;47.744;10.580;2023-12-28T05:52:01;10.53;;;1.33;;
4278;SDS011;2153;47.744;10.580;2023-12-28T05:54:28;16.90;;;1.80;;
4278;SDS011;2153;47.744;10.580;2023-12-28T05:56:54;11.37;;;1.43;;
4278;SDS011;2153;47.744;10.580;2023-12-28T05:59:21;11.00;;;1.40;;
4278;SDS011;2153;47.744;10.580;2023-12-28T06:01:51;11.37;;;1.50;;
4278;SDS011;2153;47.744;10.580;2023-12-28T06:04:17;11.63;;;1.73;;
4278;SDS011;2153;47.744;10.580;2023-12-28T06:06:44;11.23;;;1.63;;
4278;SDS011;2153;47.744;10.580;2023-12-28T06:09:12;10.60;;;1.20;;
4278;SDS011;2153;47.744;10.580;2023-12-28T06:11:39;10.20;;;1.20;;
4278;SDS011;2153;47.744;10.580;2023-12-28T06:14:05;10.17;;;1.13;;
4278;SDS011;2153;47.744;10.580;2023-12-28T06:16:34;10.20;;;0.93;;
4278;SDS011;2153;47.744;10.580;2023-12-28T06:19:01;12.13;;;1.53;;
4278;SDS011;2153;47.744;10.580;2023-12-28T06:21:28;10.70;;;1.60;;
4278;SDS011;2153;47.744;10.580;2023-12-28T06:23:55;13.73;;;3.90;;
4278;SDS011;2153;47.744;10.580;2023-12-28T06:26:23;19.80;;;3.47;;
4278;SDS011;2153;47.744;10.580;2023-12-28T06:28:50;12.93;;;2.10;;
4278;SDS011;2153;47.744;10.580;2023-12-28T06:31:16;13.00;;;2.10;;
4278;SDS011;2153;47.744;10.580;2023-12-28T06:33:43;24.60;;;7.00;;
4278;SDS011;2153;47.744;10.580;2023-12-28T06:36:10;56.53;;;16.17;;
4278;SDS011;2153;47.744;10.580;2023-12-28T06:38:38;41.17;;;9.63;;
4278;SDS011;2153;47.744;10.580;2023-12-28T06:41:09;13.17;;;2.13;;
4278;SDS011;2153;47.744;10.580;2023-12-28T06:43:38;16.93;;;2.90;;
4278;SDS011;2153;47.744;10.580;2023-12-28T06:46:05;15.47;;;2.60;;
4278;SDS011;2153;47.744;10.580;2023-12-28T06:48:32;14.47;;;3.07;;
4278;SDS011;2153;47.744;10.580;2023-12-28T06:50:58;13.30;;;3.03;;
4278;SDS011;2153;47.744;10.580;2023-12-28T06:53:25;13.43;;;3.80;;
4278;SDS011;2153;47.744;10.580;2023-12-28T06:55:52;15.23;;;5.17;;
4278;SDS011;2153;47.744;10.580;2023-12-28T06:58:18;18.33;;;5.63;;
4278;SDS011;2153;47.744;10.580;2023-12-28T07:00:46;21.60;;;6.60;;
4278;SDS011;2153;47.744;10.580;2023-12-28T07:03:13;17.27;;;5.30;;
4278;SDS011;2153;47.744;10.580;2023-12-28T07:05:40;15.43;;;4.20;;
4278;SDS011;2153;47.744;10.580;2023-12-28T07:08:06;13.90;;;3.57;;
4278;SDS011;2153;47.744;10.580;2023-12-28T07:10:34;16.23;;;4.50;;
4278;SDS011;2153;47.744;10.580;2023-12-28T07:13:01;17.43;;;4.80;;
4278;SDS011;2153;47.744;10.580;2023-12-28T07:15:28;14.63;;;3.90;;
4278;SDS011;2153;47.744;10.580;2023-12-28T07:17:56;13.87;;;3.37;;
4278;SDS011;2153;47.744;10.580;2023-12-28T07:20:22;14.50;;;3.70;;
4278;SDS011;2153;47.744;10.580;2023-12-28T07:22:49;13.40;;;3.40;;
4278;SDS011;2153;47.744;10.580;2023-12-28T07:25:16;15.80;;;4.70;;
4278;SDS011;2153;47.744;10.580;2023-12-28T07:27:42;13.73;;;3.30;;
4278;SDS011;2153;47.744;10.580;2023-12-28T07:30:10;15.23;;;3.90;;
4278;SDS011;2153;47.744;10.580;2023-12-28T07:32:37;14.43;;;3.17;;
4278;SDS011;2153;47.744;10.580;2023-12-28T07:35:05;18.80;;;5.77;;
4278;SDS011;2153;47.744;10.580;2023-12-28T07:37:32;16.87;;;4.00;;
4278;SDS011;2153;47.744;10.580;2023-12-28T07:39:59;12.20;;;2.30;;
4278;SDS011;2153;47.744;10.580;2023-12-28T07:42:26;11.47;;;1.73;;
4278;SDS011;2153;47.744;10.580;2023-12-28T07:44:52;13.90;;;2.80;;
4278;SDS011;2153;47.744;10.580;2023-12-28T07:47:19;13.50;;;2.80;;
4278;SDS011;2153;47.744;10.580;2023-12-28T07:49:46;12.63;;;3.00;;
4278;SDS011;2153;47.744;10.580;2023-12-28T07:52:14;11.97;;;2.40;;
4278;SDS011;2153;47.744;10.580;2023-12-28T07:54:41;15.00;;;3.10;;
4278;SDS011;2153;47.744;10.580;2023-12-28T07:57:07;13.20;;;2.23;;
4278;SDS011;2153;47.744;10.580;2023-12-28T07:59:34;14.73;;;3.53;;
4278;SDS011;2153;47.744;10.580;2023-12-28T08:02:01;11.53;;;1.80;;
4278;SDS011;2153;47.744;10.580;2023-12-28T08:04:27;12.50;;;1.77;;
4278;SDS011;2153;47.744;10.580;2023-12-28T08:06:54;12.20;;;1.50;;
4278;SDS011;2153;47.744;10.580;2023-12-28T08:09:22;12.83;;;1.70;;
4278;SDS011;2153;47.744;10.580;2023-12-28T08:11:48;12.47;;;1.57;;
4278;SDS011;2153;47.744;10.580;2023-12-28T08:14:15;13.13;;;1.20;;
4278;SDS011;2153;47.744;10.580;2023-12-28T08:16:42;12.80;;;1.50;;
4278;SDS011;2153;47.744;10.580;2023-12-28T08:19:09;13.10;;;1.37;;
4278;SDS011;2153;47.744;10.580;2023-12-28T08:21:35;12.03;;;1.30;;
4278;SDS011;2153;47.744;10.580;2023-12-28T08:24:02;12.17;;;1.50;;
4278;SDS011;2153;47.744;10.580;2023-12-28T08:26:31;11.93;;;1.30;;
4278;SDS011;2153;47.744;10.580;2023-12-28T08:28:57;11.90;;;1.30;;
4278;SDS011;2153;47.744;10.580;2023-12-28T08:31:24;11.60;;;1.17;;
4278;SDS011;2153;47.744;10.580;2023-12-28T08:33:51;11.57;;;1.20;;
4278;SDS011;2153;47.744;10.580;2023-12-28T08:36:17;13.37;;;1.70;;
4278;SDS011;2153;47.744;10.580;2023-12-28T08:38:44;12.97;;;1.37;;
4278;SDS011;2153;47.744;10.580;2023-12-28T08:41:17;12.87;;;1.60;;
4278;SDS011;2153;47.744;10.580;2023-12-28T08:43:45;12.97;;;1.70;;
4278;SDS011;2153;47.744;10.580;2023-12-28T08:46:12;13.37;;;2.03;;
4278;SDS011;2153;47.744;10.580;2023-12-28T08:48:39;23.47;;;6.90;;
4278;SDS011;2153;47.744;10.580;2023-12-28T08:51:06;27.37;;;7.50;;
4278;SDS011;2153;47.744;10.580;2023-12-28T08:53:33;14.60;;;2.77;;
4278;SDS011;2153;47.744;10.580;2023-12-28T08:55:59;13.93;;;2.43;;
4278;SDS011;2153;47.744;10.580;2023-12-28T08:58:27;12.97;;;1.70;;
4278;SDS011;2153;47.744;10.580;2023-12-28T09:00:55;12.00;;;1.10;;
4278;SDS011;2153;47.744;10.580;2023-12-28T09:03:21;12.03;;;1.30;;
4278;SDS011;2153;47.744;10.580;2023-12-28T09:05:48;11.80;;;1.03;;
4278;SDS011;2153;47.744;10.580;2023-12-28T09:08:14;11.40;;;1.00;;
4278;SDS011;2153;47.744;10.580;2023-12-28T09:10:41;11.33;;;1.00;;
4278;SDS011;2153;47.744;10.580;2023-12-28T09:13:08;15.00;;;1.20;;
4278;SDS011;2153;47.744;10.580;2023-12-28T09:15:41;10.80;;;0.70;;
4278;SDS011;2153;47.744;10.580;2023-12-28T09:18:09;12.43;;;1.00;;
4278;SDS011;2153;47.744;10.580;2023-12-28T09:20:35;11.07;;;0.90;;
4278;SDS011;2153;47.744;10.580;2023-12-28T09:23:02;11.33;;;1.30;;
4278;SDS011;2153;47.744;10.580;2023-12-28T09:25:29;11.20;;;1.20;;
4278;SDS011;2153;47.744;10.580;2023-12-28T09:27:55;10.97;;;1.00;;
4278;SDS011;2153;47.744;10.580;2023-12-28T09:30:22;11.20;;;1.00;;
4278;SDS011;2153;47.744;10.580;2023-12-28T09:32:49;11.37;;;0.90;;
4278;SDS011;2153;47.744;10.580;2023-12-28T09:35:17;13.03;;;1.10;;
4278;SDS011;2153;47.744;10.580;2023-12-28T09:37:43;11.10;;;1.17;;
4278;SDS011;2153;47.744;10.580;2023-12-28T09:40:12;11.40;;;0.97;;
4278;SDS011;2153;47.744;10.580;2023-12-28T09:42:40;11.60;;;1.17;;
4278;SDS011;2153;47.744;10.580;2023-12-28T09:45:14;11.43;;;1.20;;
4278;SDS011;2153;47.744;10.580;2023-12-28T09:47:40;11.70;;;1.30;;
4278;SDS011;2153;47.744;10.580;2023-12-28T09:50:09;11.47;;;1.30;;
4278;SDS011;2153;47.744;10.580;2023-12-28T09:52:38;12.00;;;1.30;;
4278;SDS011;2153;47.744;10.580;2023-12-28T09:55:04;11.40;;;1.10;;
4278;SDS011;2153;47.744;10.580;2023-12-28T09:57:33;11.90;;;1.40;;
4278;SDS011;2153;47.744;10.580;2023-12-28T10:00:00;11.47;;;1.30;;
4278;SDS011;2153;47.744;10.580;2023-12-28T10:02:27;15.57;;;3.10;;
4278;SDS011;2153;47.744;10.580;2023-12-28T10:04:54;11.60;;;1.57;;
4278;SDS011;2153;47.744;10.580;2023-12-28T10:07:21;11.57;;;1.20;;
4278;SDS011;2153;47.744;10.580;2023-12-28T10:09:49;11.33;;;1.23;;
4278;SDS011;2153;47.744;10.580;2023-12-28T10:12:16;11.80;;;1.43;;
4278;SDS011;2153;47.744;10.580;2023-12-28T10:14:43;12.13;;;1.40;;
4278;SDS011;2153;47.744;10.580;2023-12-28T10:17:09;11.40;;;1.23;;
4278;SDS011;2153;47.744;10.580;2023-12-28T10:19:36;11.60;;;1.20;;
4278;SDS011;2153;47.744;10.580;2023-12-28T10:22:03;11.57;;;1.10;;
4278;SDS011;2153;47.744;10.580;2023-12-28T10:24:30;10.97;;;1.10;;
4278;SDS011;2153;47.744;10.580;2023-12-28T10:26:59;11.03;;;1.10;;
4278;SDS011;2153;47.744;10.580;2023-12-28T10:29:26;13.30;;;1.83;;
4278;SDS011;2153;47.744;10.580;2023-12-28T10:31:52;12.67;;;2.13;;
4278;SDS011;2153;47.744;10.580;2023-12-28T10:34:19;11.60;;;1.50;;
4278;SDS011;2153;47.744;10.580;2023-12-28T10:36:46;11.60;;;1.30;;
4278;SDS011;2153;47.744;10.580;2023-12-28T10:39:16;11.03;;;1.00;;
4278;SDS011;2153;47.744;10.580;2023-12-28T10:41:46;13.10;;;1.40;;
4278;SDS011;2153;47.744;10.580;2023-12-28T10:44:17;11.10;;;1.10;;
4278;SDS011;2153;47.744;10.580;2023-12-28T10:46:46;11.43;;;1.43;;
4278;SDS011;2153;47.744;10.580;2023-12-28T10:49:16;11.37;;;1.40;;
4278;SDS011;2153;47.744;10.580;2023-12-28T10:51:46;11.43;;;1.33;;
4278;SDS011;2153;47.744;10.580;2023-12-28T10:54:20;14.60;;;3.47;;
4278;SDS011;2153;47.744;10.580;2023-12-28T10:56:59;12.60;;;2.67;;
4278;SDS011;2153;47.744;10.580;2023-12-28T10:59:35;12.70;;;2.03;;
4278;SDS011;2153;47.744;10.580;2023-12-28T11:02:11;13.43;;;2.30;;
4278;SDS011;2153;47.744;10.580;2023-12-28T11:04:42;11.50;;;1.40;;
4278;SDS011;2153;47.744;10.580;2023-12-28T11:07:13;12.73;;;1.70;;
4278;SDS011;2153;47.744;10.580;2023-12-28T11:09:41;12.63;;;1.80;;
4278;SDS011;2153;47.744;10.580;2023-12-28T11:12:08;11.90;;;1.50;;
4278;SDS011;2153;47.744;10.580;2023-12-28T11:14:37;12.70;;;2.13;;
4278;SDS011;2153;47.744;10.580;2023-12-28T11:17:05;12.37;;;1.60;;
4278;SDS011;2153;47.744;10.580;2023-12-28T11:19:32;12.80;;;2.10;;
4278;SDS011;2153;47.744;10.580;2023-12-28T11:22:01;15.47;;;2.20;;
4278;SDS011;2153;47.744;10.580;2023-12-28T11:24:29;13.27;;;2.10;;
4278;SDS011;2153;47.744;10.580;2023-12-28T11:26:56;12.40;;;2.00;;
4278;SDS011;2153;47.744;10.580;2023-12-28T11:29:23;13.37;;;2.00;;
4278;SDS011;2153;47.744;10.580;2023-12-28T11:31:52;12.87;;;1.83;;
4278;SDS011;2153;47.744;10.580;2023-12-28T11:34:24;11.93;;;1.73;;
4278;SDS011;2153;47.744;10.580;2023-12-28T11:36:51;12.47;;;2.07;;
4278;SDS011;2153;47.744;10.580;2023-12-28T11:39:20;11.60;;;1.50;;
4278;SDS011;2153;47.744;10.580;2023-12-28T11:41:52;13.03;;;2.23;;
4278;SDS011;2153;47.744;10.580;2023-12-28T11:44:26;11.60;;;1.60;;
4278;SDS011;2153;47.744;10.580;2023-12-28T11:46:54;11.90;;;1.67;;
4278;SDS011;2153;47.744;10.580;2023-12-28T11:49:25;11.57;;;1.70;;
4278;SDS011;2153;47.744;10.580;2023-12-28T11:51:54;11.77;;;1.43;;
4278;SDS011;2153;47.744;10.580;2023-12-28T11:54:22;13.03;;;1.30;;
4278;SDS011;2153;47.744;10.580;2023-12-28T11:56:49;13.30;;;1.50;;
4278;SDS011;2153;47.744;10.580;2023-12-28T11:59:16;12.20;;;2.03;;
4278;SDS011;2153;47.744;10.580;2023-12-28T12:01:42;11.70;;;1.77;;
4278;SDS011;2153;47.744;10.580;2023-12-28T12:04:10;18.23;;;2.00;;
4278;SDS011;2153;47.744;10.580;2023-12-28T12:06:37;11.50;;;1.27;;
4278;SDS011;2153;47.744;10.580;2023-12-28T12:09:05;11.43;;;1.33;;
4278;SDS011;2153;47.744;10.580;2023-12-28T12:11:32;11.23;;;1.30;;
4278;SDS011;2153;47.744;10.580;2023-12-28T12:13:58;13.30;;;1.60;;
4278;SDS011;2153;47.744;10.580;2023-12-28T12:16:25;12.00;;;1.27;;
4278;SDS011;2153;47.744;10.580;2023-12-28T12:18:52;11.37;;;1.10;;
4278;SDS011;2153;47.744;10.580;2023-12-28T12:21:24;11.93;;;1.70;;
4278;SDS011;2153;47.744;10.580;2023-12-28T12:23:50;12.20;;;1.70;;
4278;SDS011;2153;47.744;10.580;2023-12-28T12:26:17;12.10;;;1.40;;
4278;SDS011;2153;47.744;10.580;2023-12-28T12:28:44;12.30;;;1.93;;
4278;SDS011;2153;47.744;10.580;2023-12-28T12:31:11;11.80;;;1.30;;
4278;SDS011;2153;47.744;10.580;2023-12-28T12:33:38;11.63;;;1.20;;
4278;SDS011;2153;47.744;10.580;2023-12-28T12:36:06;11.33;;;1.20;;
4278;SDS011;2153;47.744;10.580;2023-12-28T12:38:34;15.80;;;1.23;;
4278;SDS011;2153;47.744;10.580;2023-12-28T12:41:02;11.93;;;1.40;;
4278;SDS011;2153;47.744;10.580;2023-12-28T12:43:29;11.47;;;1.30;;
4278;SDS011;2153;47.744;10.580;2023-12-28T12:45:56;12.00;;;1.60;;
4278;SDS011;2153;47.744;10.580;2023-12-28T12:48:23;11.47;;;1.27;;
4278;SDS011;2153;47.744;10.580;2023-12-28T12:50:49;13.93;;;1.40;;
4278;SDS011;2153;47.744;10.580;2023-12-28T12:53:16;13.90;;;1.80;;
4278;SDS011;2153;47.744;10.580;2023-12-28T12:55:44;13.63;;;2.10;;
4278;SDS011;2153;47.744;10.580;2023-12-28T12:58:11;13.37;;;2.37;;
4278;SDS011;2153;47.744;10.580;2023-12-28T13:00:41;12.90;;;2.30;;
4278;SDS011;2153;47.744;10.580;2023-12-28T13:03:08;16.83;;;2.27;;
4278;SDS011;2153;47.744;10.580;2023-12-28T13:05:35;12.53;;;2.20;;
4278;SDS011;2153;47.744;10.580;2023-12-28T13:08:02;14.03;;;2.00;;
4278;SDS011;2153;47.744;10.580;2023-12-28T13:10:29;14.33;;;2.07;;
4278;SDS011;2153;47.744;10.580;2023-12-28T13:12:57;12.53;;;1.63;;
4278;SDS011;2153;47.744;10.580;2023-12-28T13:15:26;11.00;;;1.30;;
4278;SDS011;2153;47.744;10.580;2023-12-28T13:17:53;11.27;;;1.40;;
4278;SDS011;2153;47.744;10.580;2023-12-28T13:20:20;11.77;;;1.67;;
4278;SDS011;2153;47.744;10.580;2023-12-28T13:22:46;11.87;;;1.53;;
4278;SDS011;2153;47.744;10.580;2023-12-28T13:25:13;13.50;;;1.57;;
4278;SDS011;2153;47.744;10.580;2023-12-28T13:27:40;13.03;;;1.70;;
4278;SDS011;2153;47.744;10.580;2023-12-28T13:30:09;11.27;;;1.40;;
4278;SDS011;2153;47.744;10.580;2023-12-28T13:32:37;11.87;;;1.60;;
4278;SDS011;2153;47.744;10.580;2023-12-28T13:35:04;11.13;;;1.30;;
4278;SDS011;2153;47.744;10.580;2023-12-28T13:37:31;11.63;;;1.60;;
4278;SDS011;2153;47.744;10.580;2023-12-28T13:39:58;11.53;;;1.50;;
4278;SDS011;2153;47.744;10.580;2023-12-28T13:42:25;11.20;;;1.30;;
4278;SDS011;2153;47.744;10.580;2023-12-28T13:44:52;11.87;;;1.47;;
4278;SDS011;2153;47.744;10.580;2023-12-28T13:47:20;12.50;;;1.53;;
4278;SDS011;2153;47.744;10.580;2023-12-28T13:49:46;11.73;;;1.40;;
4278;SDS011;2153;47.744;10.580;2023-12-28T13:52:13;11.50;;;1.73;;
4278;SDS011;2153;47.744;10.580;2023-12-28T13:54:40;13.07;;;2.23;;
4278;SDS011;2153;47.744;10.580;2023-12-28T13:57:06;13.20;;;2.03;;
4278;SDS011;2153;47.744;10.580;2023-12-28T13:59:33;11.60;;;1.30;;
4278;SDS011;2153;47.744;10.580;2023-12-28T14:02:00;11.77;;;1.40;;
4278;SDS011;2153;47.744;10.580;2023-12-28T14:04:28;11.40;;;1.30;;
4278;SDS011;2153;47.744;10.580;2023-12-28T14:06:54;11.70;;;1.30;;
4278;SDS011;2153;47.744;10.580;2023-12-28T14:09:21;11.47;;;1.47;;
4278;SDS011;2153;47.744;10.580;2023-12-28T14:11:48;13.00;;;1.63;;
4278;SDS011;2153;47.744;10.580;2023-12-28T14:14:14;14.27;;;1.40;;
4278;SDS011;2153;47.744;10.580;2023-12-28T14:16:41;12.20;;;1.50;;
4278;SDS011;2153;47.744;10.580;2023-12-28T14:19:08;11.47;;;1.43;;
4278;SDS011;2153;47.744;10.580;2023-12-28T14:21:37;12.30;;;2.07;;
4278;SDS011;2153;47.744;10.580;2023-12-28T14:24:05;11.80;;;1.97;;
4278;SDS011;2153;47.744;10.580;2023-12-28T14:26:32;11.90;;;1.43;;
4278;SDS011;2153;47.744;10.580;2023-12-28T14:29:00;12.20;;;1.50;;
4278;SDS011;2153;47.744;10.580;2023-12-28T14:31:29;11.77;;;1.30;;
4278;SDS011;2153;47.744;10.580;2023-12-28T14:33:56;12.80;;;1.73;;
4278;SDS011;2153;47.744;10.580;2023-12-28T14:36:25;12.13;;;1.90;;
4278;SDS011;2153;47.744;10.580;2023-12-28T14:38:57;12.20;;;1.60;;
4278;SDS011;2153;47.744;10.580;2023-12-28T14:41:24;11.60;;;1.50;;
4278;SDS011;2153;47.744;10.580;2023-12-28T14:43:51;13.60;;;1.70;;
4278;SDS011;2153;47.744;10.580;2023-12-28T14:46:18;13.57;;;1.80;;
4278;SDS011;2153;47.744;10.580;2023-12-28T14:48:45;11.93;;;1.80;;
4278;SDS011;2153;47.744;10.580;2023-12-28T14:51:12;12.33;;;2.20;;